Time,TemperatureF,DewpointF,PressureIn,WindDirection,WindDirectionDegrees,WindSpeedMPH,WindSpeedGustMPH,Humidity,HourlyPrecipIn,Conditions,Clouds,dailyrainin,SoftwareType,DateUTC
2013-01-02 00:09:00,16.4,14.0,30.16,West,262,0.0,2.0,88,0.00,,,0.00,weatherlink.com 1.10,2013-01-02 05:09:00,
2013-01-02 00:24:00,16.0,13.0,30.17,WSW,242,1.0,2.0,89,0.00,,,0.00,weatherlink.com 1.10,2013-01-02 05:24:00,
2013-01-02 00:39:00,15.7,13.0,30.17,West,265,1.0,3.0,90,0.00,,,0.00,weatherlink.com 1.10,2013-01-02 05:39:00,
2013-01-02 00:54:00,15.3,13.0,30.16,WSW,252,0.0,1.0,90,0.00,,,0.00,weatherlink.com 1.10,2013-01-02 05:54:00,
2013-01-02 01:09:00,14.9,13.0,30.16,WSW,255,3.0,3.0,90,0.00,,,0.00,weatherlink.com 1.10,2013-01-02 06:09:00,
2013-01-02 01:24:00,14.6,12.0,30.17,WSW,238,1.0,2.0,90,0.00,,,0.00,weatherlink.com 1.10,2013-01-02 06:24:00,
2013-01-02 01:56:00,14.1,12.0,30.18,WSW,249,1.0,4.0,90,0.00,,,0.00,weatherlink.com 1.10,2013-01-02 06:56:00,
2013-01-02 02:09:00,14.0,12.0,30.17,West,262,0.0,2.0,90,0.00,,,0.00,weatherlink.com 1.10,2013-01-02 07:09:00,
2013-01-02 02:24:00,13.9,12.0,30.18,WSW,250,1.0,4.0,90,0.00,,,0.00,weatherlink.com 1.10,2013-01-02 07:24:00,
2013-01-02 02:39:00,13.5,11.0,30.19,West,262,0.0,3.0,89,0.00,,,0.00,weatherlink.com 1.10,2013-01-02 07:39:00,
2013-01-02 02:54:00,13.2,11.0,30.18,WSW,247,1.0,4.0,89,0.00,,,0.00,weatherlink.com 1.10,2013-01-02 07:54:00,
2013-01-02 03:09:00,12.9,10.0,30.21,West,259,2.0,3.0,89,0.00,,,0.00,weatherlink.com 1.10,2013-01-02 08:09:00,
2013-01-02 03:25:00,12.9,10.0,30.19,West,277,3.0,3.0,89,0.00,,,0.00,weatherlink.com 1.10,2013-01-02 08:25:00,
2013-01-02 03:40:00,12.5,10.0,30.19,West,280,5.0,5.0,89,0.00,,,0.00,weatherlink.com 1.10,2013-01-02 08:40:00,
2013-01-02 03:55:00,12.3,10.0,30.19,SW,234,0.0,2.0,89,0.00,,,0.00,weatherlink.com 1.10,2013-01-02 08:55:00,
2013-01-02 04:10:00,11.9,10.0,30.19,West,277,0.0,2.0,90,0.00,,,0.00,weatherlink.com 1.10,2013-01-02 09:10:00,
2013-01-02 04:25:00,11.9,10.0,30.19,WSW,246,0.0,4.0,90,0.00,,,0.00,weatherlink.com 1.10,2013-01-02 09:25:00,
2013-01-02 04:40:00,11.6,9.0,30.19,WSW,242,1.0,5.0,90,0.00,,,0.00,weatherlink.com 1.10,2013-01-02 09:40:00,
2013-01-02 04:55:00,11.4,9.0,30.20,West,269,1.0,4.0,90,0.00,,,0.00,weatherlink.com 1.10,2013-01-02 09:55:00,
2013-01-02 05:10:00,11.2,9.0,30.20,West,261,1.0,7.0,89,0.00,,,0.00,weatherlink.com 1.10,2013-01-02 10:10:00,
2013-01-02 05:25:00,10.9,8.0,30.20,West,264,2.0,4.0,89,0.00,,,0.00,weatherlink.com 1.10,2013-01-02 10:25:00,
2013-01-02 05:40:00,10.8,8.0,30.21,WSW,245,2.0,6.0,89,0.00,,,0.00,weatherlink.com 1.10,2013-01-02 10:40:00,
2013-01-02 05:55:00,10.6,8.0,30.20,WSW,252,2.0,5.0,88,0.00,,,0.00,weatherlink.com 1.10,2013-01-02 10:55:00,
2013-01-02 06:10:00,10.2,8.0,30.20,West,264,0.0,4.0,89,0.00,,,0.00,weatherlink.com 1.10,2013-01-02 11:10:00,
2013-01-02 06:25:00,9.9,7.0,30.20,West,281,2.0,4.0,89,0.00,,,0.00,weatherlink.com 1.10,2013-01-02 11:25:00,
2013-01-02 06:40:00,9.6,7.0,30.20,West,261,2.0,3.0,89,0.00,,,0.00,weatherlink.com 1.10,2013-01-02 11:40:00,
2013-01-02 06:55:00,9.3,7.0,30.21,West,274,0.0,2.0,89,0.00,,,0.00,weatherlink.com 1.10,2013-01-02 11:55:00,
2013-01-02 07:10:00,9.0,6.0,30.20,West,271,1.0,3.0,88,0.00,,,0.00,weatherlink.com 1.10,2013-01-02 12:10:00,
2013-01-02 07:25:00,8.9,6.0,30.20,WNW,282,1.0,4.0,88,0.00,,,0.00,weatherlink.com 1.10,2013-01-02 12:25:00,
2013-01-02 07:40:00,8.9,6.0,30.20,West,271,1.0,2.0,88,0.00,,,0.00,weatherlink.com 1.10,2013-01-02 12:40:00,
2013-01-02 07:55:00,8.8,6.0,30.20,West,271,1.0,3.0,87,0.00,,,0.00,weatherlink.com 1.10,2013-01-02 12:55:00,
2013-01-02 08:10:00,8.8,6.0,30.21,WSW,255,3.0,3.0,88,0.00,,,0.00,weatherlink.com 1.10,2013-01-02 13:10:00,
2013-01-02 08:25:00,8.7,6.0,30.23,WSW,248,1.0,3.0,88,0.00,,,0.00,weatherlink.com 1.10,2013-01-02 13:25:00,
2013-01-02 08:40:00,8.5,6.0,30.23,West,278,1.0,3.0,88,0.00,,,0.00,weatherlink.com 1.10,2013-01-02 13:40:00,
2013-01-02 08:55:00,8.6,6.0,30.23,WSW,247,0.0,4.0,89,0.00,,,0.00,weatherlink.com 1.10,2013-01-02 13:55:00,
2013-01-02 09:10:00,9.1,6.0,30.24,WSW,257,1.0,4.0,88,0.00,,,0.00,weatherlink.com 1.10,2013-01-02 14:10:00,
2013-01-02 09:25:00,10.1,7.0,30.25,West,279,1.0,5.0,88,0.00,,,0.00,weatherlink.com 1.10,2013-01-02 14:25:00,
2013-01-02 09:40:00,11.0,8.0,30.25,West,261,1.0,4.0,87,0.00,,,0.00,weatherlink.com 1.10,2013-01-02 14:40:00,
2013-01-02 09:55:00,11.8,9.0,30.26,West,275,3.0,6.0,87,0.00,,,0.00,weatherlink.com 1.10,2013-01-02 14:55:00,
2013-01-02 10:11:00,12.7,9.0,30.27,West,266,1.0,3.0,86,0.00,,,0.00,weatherlink.com 1.10,2013-01-02 15:11:00,
2013-01-02 10:26:00,14.1,11.0,30.27,WSW,237,1.0,2.0,86,0.00,,,0.00,weatherlink.com 1.10,2013-01-02 15:26:00,
2013-01-02 10:41:00,15.3,11.0,30.27,West,259,0.0,3.0,84,0.00,,,0.00,weatherlink.com 1.10,2013-01-02 15:41:00,
2013-01-02 10:56:00,16.7,12.0,30.27,WSW,248,2.0,2.0,82,0.00,,,0.00,weatherlink.com 1.10,2013-01-02 15:56:00,
2013-01-02 11:11:00,18.0,13.0,30.27,SW,233,0.0,2.0,81,0.00,,,0.00,weatherlink.com 1.10,2013-01-02 16:11:00,
2013-01-02 11:26:00,19.4,14.0,30.27,WSW,247,2.0,3.0,79,0.00,,,0.00,weatherlink.com 1.10,2013-01-02 16:26:00,
2013-01-02 11:41:00,20.4,14.0,30.26,SSW,211,0.0,4.0,77,0.00,,,0.00,weatherlink.com 1.10,2013-01-02 16:41:00,
2013-01-02 11:56:00,21.1,15.0,30.26,SSW,205,2.0,3.0,76,0.00,,,0.00,weatherlink.com 1.10,2013-01-02 16:56:00,
2013-01-02 12:11:00,21.2,15.0,30.26,SW,223,2.0,3.0,76,0.00,,,0.00,weatherlink.com 1.10,2013-01-02 17:11:00,
2013-01-02 12:26:00,21.2,16.0,30.25,SW,227,1.0,3.0,79,0.00,,,0.00,weatherlink.com 1.10,2013-01-02 17:26:00,
2013-01-02 12:41:00,21.3,15.0,30.25,SW,221,2.0,4.0,78,0.00,,,0.00,weatherlink.com 1.10,2013-01-02 17:41:00,
2013-01-02 12:56:00,21.2,15.0,30.25,West,273,0.0,2.0,78,0.00,,,0.00,weatherlink.com 1.10,2013-01-02 17:56:00,
2013-01-02 13:11:00,21.7,16.0,30.24,SSW,196,1.0,3.0,79,0.00,,,0.00,weatherlink.com 1.10,2013-01-02 18:11:00,
2013-01-02 13:26:00,22.3,16.0,30.23,SSW,210,2.0,3.0,77,0.00,,,0.00,weatherlink.com 1.10,2013-01-02 18:26:00,
2013-01-02 13:41:00,22.5,15.0,30.23,SSW,213,3.0,4.0,74,0.00,,,0.00,weatherlink.com 1.10,2013-01-02 18:41:00,
2013-01-02 13:56:00,22.7,16.0,30.22,SW,214,1.0,3.0,76,0.00,,,0.00,weatherlink.com 1.10,2013-01-02 18:56:00,
2013-01-02 14:11:00,23.3,17.0,30.22,SSW,209,0.0,3.0,75,0.00,,,0.00,weatherlink.com 1.10,2013-01-02 19:11:00,
2013-01-02 14:26:00,24.3,17.0,30.22,WSW,247,0.0,4.0,74,0.00,,,0.00,weatherlink.com 1.10,2013-01-02 19:26:00,
2013-01-02 14:41:00,25.1,17.0,30.22,WSW,242,2.0,3.0,72,0.00,,,0.00,weatherlink.com 1.10,2013-01-02 19:41:00,
2013-01-02 14:56:00,24.4,16.0,30.22,SSW,205,2.0,4.0,71,0.00,,,0.00,weatherlink.com 1.10,2013-01-02 19:56:00,
2013-01-02 15:11:00,23.8,16.0,30.22,SW,227,2.0,4.0,72,0.00,,,0.00,weatherlink.com 1.10,2013-01-02 20:11:00,
2013-01-02 15:26:00,23.6,16.0,30.22,SW,236,1.0,3.0,73,0.00,,,0.00,weatherlink.com 1.10,2013-01-02 20:26:00,
2013-01-02 15:41:00,23.0,16.0,30.23,SSW,208,0.0,3.0,74,0.00,,,0.00,weatherlink.com 1.10,2013-01-02 20:41:00,
2013-01-02 15:56:00,22.6,16.0,30.23,SW,225,1.0,3.0,75,0.00,,,0.00,weatherlink.com 1.10,2013-01-02 20:56:00,
2013-01-02 16:11:00,22.2,16.0,30.23,WSW,242,1.0,2.0,76,0.00,,,0.00,weatherlink.com 1.10,2013-01-02 21:11:00,
2013-01-02 16:26:00,21.7,15.0,30.23,SW,222,1.0,3.0,75,0.00,,,0.00,weatherlink.com 1.10,2013-01-02 21:26:00,
2013-01-02 16:41:00,21.2,14.0,30.23,West,268,0.0,1.0,74,0.00,,,0.00,weatherlink.com 1.10,2013-01-02 21:41:00,
2013-01-02 16:56:00,20.7,14.0,30.23,SW,222,0.0,2.0,76,0.00,,,0.00,weatherlink.com 1.10,2013-01-02 21:56:00,
2013-01-02 17:11:00,20.0,14.0,30.24,SSW,206,0.0,0.0,77,0.00,,,0.00,weatherlink.com 1.10,2013-01-02 22:11:00,
2013-01-02 17:26:00,19.4,14.0,30.25,SSW,207,0.0,0.0,78,0.00,,,0.00,weatherlink.com 1.10,2013-01-02 22:26:00,
2013-01-02 17:41:00,18.7,13.0,30.25,SSW,205,0.0,1.0,79,0.00,,,0.00,weatherlink.com 1.10,2013-01-02 22:41:00,
2013-01-02 17:56:00,18.2,13.0,30.26,SSW,207,1.0,2.0,79,0.00,,,0.00,weatherlink.com 1.10,2013-01-02 22:56:00,
2013-01-02 18:11:00,17.8,12.0,30.25,SSW,207,0.0,1.0,79,0.00,,,0.00,weatherlink.com 1.10,2013-01-02 23:11:00,
2013-01-02 18:26:00,17.4,12.0,30.26,SW,221,0.0,2.0,80,0.00,,,0.00,weatherlink.com 1.10,2013-01-02 23:26:00,
2013-01-02 18:41:00,17.0,12.0,30.26,SW,220,0.0,0.0,81,0.00,,,0.00,weatherlink.com 1.10,2013-01-02 23:41:00,
2013-01-02 18:56:00,16.3,12.0,30.26,SSW,194,1.0,2.0,82,0.00,,,0.00,weatherlink.com 1.10,2013-01-02 23:56:00,
2013-01-02 19:11:00,15.8,11.0,30.26,SSW,200,1.0,2.0,82,0.00,,,0.00,weatherlink.com 1.10,2013-01-03 00:11:00,
2013-01-02 19:26:00,15.5,11.0,30.26,SSW,207,0.0,1.0,81,0.00,,,0.00,weatherlink.com 1.10,2013-01-03 00:26:00,
2013-01-02 19:41:00,15.0,10.0,30.25,SSW,199,0.0,3.0,81,0.00,,,0.00,weatherlink.com 1.10,2013-01-03 00:41:00,
2013-01-02 19:56:00,14.7,10.0,30.25,SSW,198,0.0,3.0,80,0.00,,,0.00,weatherlink.com 1.10,2013-01-03 00:56:00,
2013-01-02 20:11:00,14.4,9.0,30.24,SSE,163,0.0,2.0,79,0.00,,,0.00,weatherlink.com 1.10,2013-01-03 01:11:00,
2013-01-02 20:26:00,13.9,9.0,30.25,South,178,0.0,4.0,80,0.00,,,0.00,weatherlink.com 1.10,2013-01-03 01:26:00,
2013-01-02 20:41:00,13.6,9.0,30.24,SSW,205,0.0,3.0,80,0.00,,,0.00,weatherlink.com 1.10,2013-01-03 01:41:00,
2013-01-02 20:56:00,13.3,8.0,30.24,SSW,202,0.0,3.0,80,0.00,,,0.00,weatherlink.com 1.10,2013-01-03 01:56:00,
2013-01-02 21:11:00,13.0,8.0,30.24,South,188,0.0,4.0,80,0.00,,,0.00,weatherlink.com 1.10,2013-01-03 02:11:00,
2013-01-02 21:26:00,12.9,8.0,30.24,SSW,206,0.0,5.0,80,0.00,,,0.00,weatherlink.com 1.10,2013-01-03 02:26:00,
2013-01-02 21:41:00,12.7,7.0,30.24,SW,223,0.0,3.0,78,0.00,,,0.00,weatherlink.com 1.10,2013-01-03 02:41:00,
2013-01-02 21:56:00,12.6,7.0,30.24,SSW,213,0.0,3.0,78,0.00,,,0.00,weatherlink.com 1.10,2013-01-03 02:56:00,
2013-01-02 22:11:00,12.3,7.0,30.24,SSW,210,1.0,4.0,78,0.00,,,0.00,weatherlink.com 1.10,2013-01-03 03:11:00,
2013-01-02 22:26:00,12.2,7.0,30.24,SW,215,1.0,3.0,78,0.00,,,0.00,weatherlink.com 1.10,2013-01-03 03:26:00,
2013-01-02 22:56:00,11.9,6.0,30.23,SSW,196,0.0,3.0,78,0.00,,,0.00,weatherlink.com 1.10,2013-01-03 03:56:00,
2013-01-02 23:11:00,11.8,6.0,30.23,SSW,207,3.0,3.0,78,0.00,,,0.00,weatherlink.com 1.10,2013-01-03 04:11:00,
2013-01-02 23:26:00,11.8,6.0,30.23,SSE,150,0.0,2.0,78,0.00,,,0.00,weatherlink.com 1.10,2013-01-03 04:26:00,
2013-01-02 23:41:00,11.6,7.0,30.23,SSW,204,1.0,3.0,80,0.00,,,0.00,weatherlink.com 1.10,2013-01-03 04:41:00,
2013-01-02 23:56:00,11.6,6.0,30.23,SW,223,0.0,2.0,79,0.00,,,0.00,weatherlink.com 1.10,2013-01-03 04:56:00,